Terminal Aerodrome Forecast
Issued by NWS

Home | Current Version | Previous Version | Graphics & Text | Print | Product List | Glossary On
Versions: 1 2 3 4 5 6 7 8 9 10 11 12 13 14 15 16 17 18 19 20
000
FTUS42 KMHX 200245 AAA
TAFISO
TAF AMD
KISO 200245Z 2003/2024 20013KT P6SM SCT020 BKN080
      TEMPO 2003/2005 BKN025
     FM200900 22008KT P6SM VCSH SCT020 OVC050
     FM201200 23007KT 5SM -SHRA VCTS SCT020CB OVC040
      AMD LTD TO CLD VIS AND WIND=

USA.gov is the U.S. government's official web portal to all federal, state and local government web resources and services.